sensor_id;sensor_type;location;lat;lon;timestamp;temperature;humidity
22966;DHT22;11649;48.090;9.754;2022-07-10T00:00:11;18.20;99.90
22966;DHT22;11649;48.090;9.754;2022-07-10T00:02:40;17.70;99.90
22966;DHT22;11649;48.090;9.754;2022-07-10T00:05:09;17.70;99.90
22966;DHT22;11649;48.090;9.754;2022-07-10T00:07:41;17.70;99.90
22966;DHT22;11649;48.090;9.754;2022-07-10T00:10:08;17.80;99.90
22966;DHT22;11649;48.090;9.754;2022-07-10T00:12:35;17.70;99.90
22966;DHT22;11649;48.090;9.754;2022-07-10T00:15:04;18.20;99.90
22966;DHT22;11649;48.090;9.754;2022-07-10T00:17:32;17.60;99.90
22966;DHT22;11649;48.090;9.754;2022-07-10T00:19:59;17.60;99.90
22966;DHT22;11649;48.090;9.754;2022-07-10T00:22:26;17.70;99.90
22966;DHT22;11649;48.090;9.754;2022-07-10T00:24:52;17.60;99.90
22966;DHT22;11649;48.090;9.754;2022-07-10T00:27:19;17.80;99.90
22966;DHT22;11649;48.090;9.754;2022-07-10T00:29:46;17.50;99.90
22966;DHT22;11649;48.090;9.754;2022-07-10T00:32:13;17.50;99.90
22966;DHT22;11649;48.090;9.754;2022-07-10T00:34:40;17.80;99.90
22966;DHT22;11649;48.090;9.754;2022-07-10T00:37:07;17.40;99.90
22966;DHT22;11649;48.090;9.754;2022-07-10T00:39:33;17.30;99.90
22966;DHT22;11649;48.090;9.754;2022-07-10T00:42:08;17.40;99.90
22966;DHT22;11649;48.090;9.754;2022-07-10T00:44:35;17.40;99.90
22966;DHT22;11649;48.090;9.754;2022-07-10T00:47:04;17.40;99.90
22966;DHT22;11649;48.090;9.754;2022-07-10T00:49:33;17.40;99.90
22966;DHT22;11649;48.090;9.754;2022-07-10T00:52:03;17.30;99.90
22966;DHT22;11649;48.090;9.754;2022-07-10T00:54:31;17.30;99.90
22966;DHT22;11649;48.090;9.754;2022-07-10T00:56:59;17.20;99.90
22966;DHT22;11649;48.090;9.754;2022-07-10T00:59:27;17.20;99.90
22966;DHT22;11649;48.090;9.754;2022-07-10T01:01:54;17.20;99.90
22966;DHT22;11649;48.090;9.754;2022-07-10T01:04:21;17.30;99.90
22966;DHT22;11649;48.090;9.754;2022-07-10T01:06:48;17.20;99.90
22966;DHT22;11649;48.090;9.754;2022-07-10T01:09:15;17.20;99.90
22966;DHT22;11649;48.090;9.754;2022-07-10T01:11:42;17.20;99.90
22966;DHT22;11649;48.090;9.754;2022-07-10T01:14:09;17.10;99.90
22966;DHT22;11649;48.090;9.754;2022-07-10T01:16:39;17.20;99.90
22966;DHT22;11649;48.090;9.754;2022-07-10T01:19:05;16.60;99.90
22966;DHT22;11649;48.090;9.754;2022-07-10T01:21:35;16.50;99.90
22966;DHT22;11649;48.090;9.754;2022-07-10T01:24:09;16.80;99.90
22966;DHT22;11649;48.090;9.754;2022-07-10T01:26:37;16.80;99.90
22966;DHT22;11649;48.090;9.754;2022-07-10T01:29:06;16.60;99.90
22966;DHT22;11649;48.090;9.754;2022-07-10T01:31:34;16.50;99.90
22966;DHT22;11649;48.090;9.754;2022-07-10T01:34:04;16.40;99.90
22966;DHT22;11649;48.090;9.754;2022-07-10T01:36:31;16.50;99.90
22966;DHT22;11649;48.090;9.754;2022-07-10T01:38:59;16.50;99.90
22966;DHT22;11649;48.090;9.754;2022-07-10T01:41:26;17.30;99.90
22966;DHT22;11649;48.090;9.754;2022-07-10T01:43:53;16.50;99.90
22966;DHT22;11649;48.090;9.754;2022-07-10T01:46:20;16.70;99.90
22966;DHT22;11649;48.090;9.754;2022-07-10T01:48:48;16.50;99.90
22966;DHT22;11649;48.090;9.754;2022-07-10T01:51:15;16.60;99.90
22966;DHT22;11649;48.090;9.754;2022-07-10T01:53:42;16.60;99.90
22966;DHT22;11649;48.090;9.754;2022-07-10T01:56:11;16.60;99.90
22966;DHT22;11649;48.090;9.754;2022-07-10T01:58:38;16.90;99.90
22966;DHT22;11649;48.090;9.754;2022-07-10T02:01:07;16.50;99.90
22966;DHT22;11649;48.090;9.754;2022-07-10T02:03:34;16.30;99.90
22966;DHT22;11649;48.090;9.754;2022-07-10T02:06:20;16.10;99.90
22966;DHT22;11649;48.090;9.754;2022-07-10T02:08:47;16.10;99.90
22966;DHT22;11649;48.090;9.754;2022-07-10T02:11:14;16.40;99.90
22966;DHT22;11649;48.090;9.754;2022-07-10T02:13:41;15.90;99.90
22966;DHT22;11649;48.090;9.754;2022-07-10T02:16:08;15.90;99.90
22966;DHT22;11649;48.090;9.754;2022-07-10T02:18:34;16.40;99.90
22966;DHT22;11649;48.090;9.754;2022-07-10T02:21:02;16.80;99.90
22966;DHT22;11649;48.090;9.754;2022-07-10T02:23:29;16.30;99.90
22966;DHT22;11649;48.090;9.754;2022-07-10T02:25:56;16.70;99.90
22966;DHT22;11649;48.090;9.754;2022-07-10T02:28:23;16.40;99.90
22966;DHT22;11649;48.090;9.754;2022-07-10T02:30:49;16.30;99.90
22966;DHT22;11649;48.090;9.754;2022-07-10T02:33:16;16.20;99.90
22966;DHT22;11649;48.090;9.754;2022-07-10T02:35:43;16.00;99.90
22966;DHT22;11649;48.090;9.754;2022-07-10T02:38:10;16.00;99.90
22966;DHT22;11649;48.090;9.754;2022-07-10T02:40:36;16.00;99.90
22966;DHT22;11649;48.090;9.754;2022-07-10T02:43:03;16.00;99.90
22966;DHT22;11649;48.090;9.754;2022-07-10T02:45:30;16.20;99.90
22966;DHT22;11649;48.090;9.754;2022-07-10T02:47:57;17.10;99.90
22966;DHT22;11649;48.090;9.754;2022-07-10T02:50:24;16.30;99.90
22966;DHT22;11649;48.090;9.754;2022-07-10T02:52:50;16.50;99.90
22966;DHT22;11649;48.090;9.754;2022-07-10T02:55:17;16.90;99.90
22966;DHT22;11649;48.090;9.754;2022-07-10T02:57:44;16.40;99.90
22966;DHT22;11649;48.090;9.754;2022-07-10T03:00:11;16.50;99.90
22966;DHT22;11649;48.090;9.754;2022-07-10T03:02:38;16.30;99.90
22966;DHT22;11649;48.090;9.754;2022-07-10T03:05:06;16.60;99.90
22966;DHT22;11649;48.090;9.754;2022-07-10T03:07:35;16.20;99.90
22966;DHT22;11649;48.090;9.754;2022-07-10T03:10:02;16.10;99.90
22966;DHT22;11649;48.090;9.754;2022-07-10T03:12:28;15.80;99.90
22966;DHT22;11649;48.090;9.754;2022-07-10T03:14:55;15.80;99.90
22966;DHT22;11649;48.090;9.754;2022-07-10T03:17:22;15.70;99.90
22966;DHT22;11649;48.090;9.754;2022-07-10T03:19:49;15.80;99.90
22966;DHT22;11649;48.090;9.754;2022-07-10T03:22:15;16.20;99.90
22966;DHT22;11649;48.090;9.754;2022-07-10T03:24:42;15.90;99.90
22966;DHT22;11649;48.090;9.754;2022-07-10T03:27:13;15.90;99.90
22966;DHT22;11649;48.090;9.754;2022-07-10T03:29:40;15.80;99.90
22966;DHT22;11649;48.090;9.754;2022-07-10T03:32:08;15.70;99.90
22966;DHT22;11649;48.090;9.754;2022-07-10T03:34:35;15.60;99.90
22966;DHT22;11649;48.090;9.754;2022-07-10T03:37:01;15.40;99.90
22966;DHT22;11649;48.090;9.754;2022-07-10T03:39:29;15.30;99.90
22966;DHT22;11649;48.090;9.754;2022-07-10T03:41:56;15.90;99.90
22966;DHT22;11649;48.090;9.754;2022-07-10T03:44:22;15.20;99.90
22966;DHT22;11649;48.090;9.754;2022-07-10T03:46:49;15.00;99.90
22966;DHT22;11649;48.090;9.754;2022-07-10T03:49:16;15.80;99.90
22966;DHT22;11649;48.090;9.754;2022-07-10T03:51:43;15.00;99.90
22966;DHT22;11649;48.090;9.754;2022-07-10T03:54:10;15.30;99.90
22966;DHT22;11649;48.090;9.754;2022-07-10T03:56:37;15.00;99.90
22966;DHT22;11649;48.090;9.754;2022-07-10T03:59:22;15.20;99.90
22966;DHT22;11649;48.090;9.754;2022-07-10T04:01:49;14.90;99.90
22966;DHT22;11649;48.090;9.754;2022-07-10T04:04:16;15.10;99.90
22966;DHT22;11649;48.090;9.754;2022-07-10T04:06:43;15.10;99.90
22966;DHT22;11649;48.090;9.754;2022-07-10T04:09:09;15.00;99.90
22966;DHT22;11649;48.090;9.754;2022-07-10T04:11:36;14.90;99.90
22966;DHT22;11649;48.090;9.754;2022-07-10T04:14:03;15.00;99.90
22966;DHT22;11649;48.090;9.754;2022-07-10T04:16:30;15.90;99.90
22966;DHT22;11649;48.090;9.754;2022-07-10T04:18:57;15.50;99.90
22966;DHT22;11649;48.090;9.754;2022-07-10T04:21:24;16.70;99.90
22966;DHT22;11649;48.090;9.754;2022-07-10T04:23:51;16.00;99.90
22966;DHT22;11649;48.090;9.754;2022-07-10T04:26:18;15.80;99.90
22966;DHT22;11649;48.090;9.754;2022-07-10T04:28:45;15.80;99.90
22966;DHT22;11649;48.090;9.754;2022-07-10T04:31:12;15.80;99.90
22966;DHT22;11649;48.090;9.754;2022-07-10T04:33:39;15.70;99.90
22966;DHT22;11649;48.090;9.754;2022-07-10T04:36:06;16.20;99.90
22966;DHT22;11649;48.090;9.754;2022-07-10T04:38:33;15.70;99.90
22966;DHT22;11649;48.090;9.754;2022-07-10T04:41:00;15.90;99.90
22966;DHT22;11649;48.090;9.754;2022-07-10T04:43:27;15.80;99.90
22966;DHT22;11649;48.090;9.754;2022-07-10T04:45:54;16.00;99.90
22966;DHT22;11649;48.090;9.754;2022-07-10T04:48:21;16.40;99.90
22966;DHT22;11649;48.090;9.754;2022-07-10T04:50:47;16.10;99.90
22966;DHT22;11649;48.090;9.754;2022-07-10T04:53:14;16.10;99.90
22966;DHT22;11649;48.090;9.754;2022-07-10T04:55:41;16.20;99.90
22966;DHT22;11649;48.090;9.754;2022-07-10T04:58:08;16.30;99.90
22966;DHT22;11649;48.090;9.754;2022-07-10T05:00:35;16.10;99.90
22966;DHT22;11649;48.090;9.754;2022-07-10T05:03:01;16.20;99.90
22966;DHT22;11649;48.090;9.754;2022-07-10T05:05:28;16.10;99.90
22966;DHT22;11649;48.090;9.754;2022-07-10T05:07:55;16.30;99.90
22966;DHT22;11649;48.090;9.754;2022-07-10T05:10:22;16.30;99.90
22966;DHT22;11649;48.090;9.754;2022-07-10T05:12:49;16.40;99.90
22966;DHT22;11649;48.090;9.754;2022-07-10T05:15:16;16.30;99.90
22966;DHT22;11649;48.090;9.754;2022-07-10T05:17:42;16.50;99.90
22966;DHT22;11649;48.090;9.754;2022-07-10T05:20:10;16.40;99.90
22966;DHT22;11649;48.090;9.754;2022-07-10T05:22:37;16.40;99.90
22966;DHT22;11649;48.090;9.754;2022-07-10T05:25:04;16.50;99.90
22966;DHT22;11649;48.090;9.754;2022-07-10T05:27:31;16.40;99.90
22966;DHT22;11649;48.090;9.754;2022-07-10T05:29:58;16.60;99.90
22966;DHT22;11649;48.090;9.754;2022-07-10T05:32:24;17.00;99.90
22966;DHT22;11649;48.090;9.754;2022-07-10T05:34:51;16.90;99.90
22966;DHT22;11649;48.090;9.754;2022-07-10T05:37:18;16.60;99.90
22966;DHT22;11649;48.090;9.754;2022-07-10T05:39:45;17.00;99.90
22966;DHT22;11649;48.090;9.754;2022-07-10T05:42:12;16.60;99.90
22966;DHT22;11649;48.090;9.754;2022-07-10T05:44:39;16.60;99.90
22966;DHT22;11649;48.090;9.754;2022-07-10T05:47:06;17.20;99.90
22966;DHT22;11649;48.090;9.754;2022-07-10T05:49:33;16.80;99.90
22966;DHT22;11649;48.090;9.754;2022-07-10T05:52:00;16.90;99.90
22966;DHT22;11649;48.090;9.754;2022-07-10T05:54:27;17.40;99.90
22966;DHT22;11649;48.090;9.754;2022-07-10T05:56:54;17.50;99.90
22966;DHT22;11649;48.090;9.754;2022-07-10T05:59:20;17.40;99.90
22966;DHT22;11649;48.090;9.754;2022-07-10T06:01:47;18.10;99.90
22966;DHT22;11649;48.090;9.754;2022-07-10T06:04:14;17.70;99.90
22966;DHT22;11649;48.090;9.754;2022-07-10T06:06:41;17.50;99.90
22966;DHT22;11649;48.090;9.754;2022-07-10T06:09:08;17.70;99.90
22966;DHT22;11649;48.090;9.754;2022-07-10T06:11:35;17.60;99.90
22966;DHT22;11649;48.090;9.754;2022-07-10T06:14:02;18.00;99.90
22966;DHT22;11649;48.090;9.754;2022-07-10T06:16:29;17.50;99.90
22966;DHT22;11649;48.090;9.754;2022-07-10T06:18:56;18.10;99.90
22966;DHT22;11649;48.090;9.754;2022-07-10T06:21:23;17.50;99.90
22966;DHT22;11649;48.090;9.754;2022-07-10T06:23:50;17.70;99.90
22966;DHT22;11649;48.090;9.754;2022-07-10T06:26:17;17.30;99.90
22966;DHT22;11649;48.090;9.754;2022-07-10T06:28:44;17.30;99.90
22966;DHT22;11649;48.090;9.754;2022-07-10T06:31:10;17.40;99.90
22966;DHT22;11649;48.090;9.754;2022-07-10T06:33:38;17.70;99.90
22966;DHT22;11649;48.090;9.754;2022-07-10T06:36:05;17.80;99.90
22966;DHT22;11649;48.090;9.754;2022-07-10T06:38:32;17.90;99.90
22966;DHT22;11649;48.090;9.754;2022-07-10T06:41:00;18.10;99.90
22966;DHT22;11649;48.090;9.754;2022-07-10T06:43:26;18.20;96.60
22966;DHT22;11649;48.090;9.754;2022-07-10T06:45:53;18.30;96.00
22966;DHT22;11649;48.090;9.754;2022-07-10T06:48:21;18.50;95.30
22966;DHT22;11649;48.090;9.754;2022-07-10T06:50:48;18.40;94.40
22966;DHT22;11649;48.090;9.754;2022-07-10T06:53:15;18.60;94.40
22966;DHT22;11649;48.090;9.754;2022-07-10T06:55:42;18.50;95.10
22966;DHT22;11649;48.090;9.754;2022-07-10T06:58:09;18.70;95.00
22966;DHT22;11649;48.090;9.754;2022-07-10T07:00:36;18.50;94.10
22966;DHT22;11649;48.090;9.754;2022-07-10T07:03:03;18.80;93.70
22966;DHT22;11649;48.090;9.754;2022-07-10T07:05:30;18.40;93.10
22966;DHT22;11649;48.090;9.754;2022-07-10T07:07:57;18.40;93.60
22966;DHT22;11649;48.090;9.754;2022-07-10T07:10:24;18.30;93.50
22966;DHT22;11649;48.090;9.754;2022-07-10T07:12:51;18.30;92.20
22966;DHT22;11649;48.090;9.754;2022-07-10T07:15:17;18.10;94.40
22966;DHT22;11649;48.090;9.754;2022-07-10T07:17:44;18.00;93.70
22966;DHT22;11649;48.090;9.754;2022-07-10T07:20:25;18.10;97.70
22966;DHT22;11649;48.090;9.754;2022-07-10T07:23:11;18.40;96.70
22966;DHT22;11649;48.090;9.754;2022-07-10T07:25:39;18.60;92.80
22966;DHT22;11649;48.090;9.754;2022-07-10T07:28:09;18.60;92.50
22966;DHT22;11649;48.090;9.754;2022-07-10T07:30:36;18.50;93.40
22966;DHT22;11649;48.090;9.754;2022-07-10T07:33:04;18.50;94.60
22966;DHT22;11649;48.090;9.754;2022-07-10T07:35:31;18.60;90.60
22966;DHT22;11649;48.090;9.754;2022-07-10T07:37:58;18.70;90.50
22966;DHT22;11649;48.090;9.754;2022-07-10T07:40:24;18.50;89.30
22966;DHT22;11649;48.090;9.754;2022-07-10T07:42:52;18.50;90.70
22966;DHT22;11649;48.090;9.754;2022-07-10T07:45:23;18.60;89.80
22966;DHT22;11649;48.090;9.754;2022-07-10T07:47:56;18.90;90.20
22966;DHT22;11649;48.090;9.754;2022-07-10T07:50:31;18.90;90.80
22966;DHT22;11649;48.090;9.754;2022-07-10T07:53:02;18.80;91.40
22966;DHT22;11649;48.090;9.754;2022-07-10T07:55:31;18.70;89.20
22966;DHT22;11649;48.090;9.754;2022-07-10T07:57:58;18.80;89.70
22966;DHT22;11649;48.090;9.754;2022-07-10T08:00:26;18.80;90.80
22966;DHT22;11649;48.090;9.754;2022-07-10T08:02:54;18.90;84.00
22966;DHT22;11649;48.090;9.754;2022-07-10T08:05:22;18.90;81.50
22966;DHT22;11649;48.090;9.754;2022-07-10T08:07:56;18.90;85.90
22966;DHT22;11649;48.090;9.754;2022-07-10T08:10:25;19.00;85.50
22966;DHT22;11649;48.090;9.754;2022-07-10T08:12:53;18.90;84.50
22966;DHT22;11649;48.090;9.754;2022-07-10T08:15:21;18.90;84.50
22966;DHT22;11649;48.090;9.754;2022-07-10T08:17:54;18.80;87.30
22966;DHT22;11649;48.090;9.754;2022-07-10T08:20:25;18.70;85.40
22966;DHT22;11649;48.090;9.754;2022-07-10T08:22:52;18.70;83.50
22966;DHT22;11649;48.090;9.754;2022-07-10T08:25:25;18.70;78.00
22966;DHT22;11649;48.090;9.754;2022-07-10T08:27:52;18.90;75.30
22966;DHT22;11649;48.090;9.754;2022-07-10T08:30:19;19.10;80.60
22966;DHT22;11649;48.090;9.754;2022-07-10T08:32:46;19.80;78.40
22966;DHT22;11649;48.090;9.754;2022-07-10T08:35:13;19.20;74.20
22966;DHT22;11649;48.090;9.754;2022-07-10T08:37:41;19.10;73.90
22966;DHT22;11649;48.090;9.754;2022-07-10T08:40:09;19.00;76.40
22966;DHT22;11649;48.090;9.754;2022-07-10T08:42:37;18.90;78.40
22966;DHT22;11649;48.090;9.754;2022-07-10T08:45:04;18.90;77.70
22966;DHT22;11649;48.090;9.754;2022-07-10T08:47:34;19.10;80.60
22966;DHT22;11649;48.090;9.754;2022-07-10T08:50:13;19.40;78.10
22966;DHT22;11649;48.090;9.754;2022-07-10T08:55:26;19.90;78.60
22966;DHT22;11649;48.090;9.754;2022-07-10T08:57:54;20.30;76.30
22966;DHT22;11649;48.090;9.754;2022-07-10T09:00:23;20.60;74.20
22966;DHT22;11649;48.090;9.754;2022-07-10T09:02:52;20.60;72.50
22966;DHT22;11649;48.090;9.754;2022-07-10T09:05:19;20.60;70.40
22966;DHT22;11649;48.090;9.754;2022-07-10T09:07:46;20.20;68.70
22966;DHT22;11649;48.090;9.754;2022-07-10T09:10:13;20.10;71.10
22966;DHT22;11649;48.090;9.754;2022-07-10T09:12:56;19.90;72.10
22966;DHT22;11649;48.090;9.754;2022-07-10T09:15:28;20.10;70.60
22966;DHT22;11649;48.090;9.754;2022-07-10T09:18:01;20.10;69.00
22966;DHT22;11649;48.090;9.754;2022-07-10T09:20:36;20.30;67.70
22966;DHT22;11649;48.090;9.754;2022-07-10T09:23:18;20.20;70.30
22966;DHT22;11649;48.090;9.754;2022-07-10T09:25:47;20.10;70.20
22966;DHT22;11649;48.090;9.754;2022-07-10T09:28:20;20.20;68.50
22966;DHT22;11649;48.090;9.754;2022-07-10T09:30:48;20.00;69.10
22966;DHT22;11649;48.090;9.754;2022-07-10T09:33:23;20.00;68.00
22966;DHT22;11649;48.090;9.754;2022-07-10T09:41:26;20.20;66.30
22966;DHT22;11649;48.090;9.754;2022-07-10T09:43:59;20.20;68.10
22966;DHT22;11649;48.090;9.754;2022-07-10T09:46:35;20.40;70.30
22966;DHT22;11649;48.090;9.754;2022-07-10T09:51:39;20.60;66.50
22966;DHT22;11649;48.090;9.754;2022-07-10T09:54:14;20.50;68.20
22966;DHT22;11649;48.090;9.754;2022-07-10T09:56:43;20.60;68.70
22966;DHT22;11649;48.090;9.754;2022-07-10T09:59:12;20.50;65.60
22966;DHT22;11649;48.090;9.754;2022-07-10T10:01:46;20.40;65.30
22966;DHT22;11649;48.090;9.754;2022-07-10T10:04:15;21.20;69.00
22966;DHT22;11649;48.090;9.754;2022-07-10T10:06:43;20.80;68.80
22966;DHT22;11649;48.090;9.754;2022-07-10T10:09:19;21.00;66.80
22966;DHT22;11649;48.090;9.754;2022-07-10T10:11:49;20.80;63.20
22966;DHT22;11649;48.090;9.754;2022-07-10T10:14:19;20.50;67.20
22966;DHT22;11649;48.090;9.754;2022-07-10T10:16:47;20.30;66.80
22966;DHT22;11649;48.090;9.754;2022-07-10T10:19:14;20.40;69.90
22966;DHT22;11649;48.090;9.754;2022-07-10T10:22:01;20.90;72.20
22966;DHT22;11649;48.090;9.754;2022-07-10T10:24:31;20.80;69.40
22966;DHT22;11649;48.090;9.754;2022-07-10T10:27:00;20.90;67.90
22966;DHT22;11649;48.090;9.754;2022-07-10T10:29:28;21.00;67.80
22966;DHT22;11649;48.090;9.754;2022-07-10T10:31:56;21.10;68.40
22966;DHT22;11649;48.090;9.754;2022-07-10T10:34:43;21.30;65.90
22966;DHT22;11649;48.090;9.754;2022-07-10T10:40:07;21.20;62.70
22966;DHT22;11649;48.090;9.754;2022-07-10T10:42:42;21.00;64.90
22966;DHT22;11649;48.090;9.754;2022-07-10T10:50:56;20.80;66.10
22966;DHT22;11649;48.090;9.754;2022-07-10T10:53:27;20.90;66.00
22966;DHT22;11649;48.090;9.754;2022-07-10T10:58:37;21.10;65.20
22966;DHT22;11649;48.090;9.754;2022-07-10T11:06:42;21.30;64.20
22966;DHT22;11649;48.090;9.754;2022-07-10T11:09:29;21.30;64.50
22966;DHT22;11649;48.090;9.754;2022-07-10T11:14:28;21.40;59.50
22966;DHT22;11649;48.090;9.754;2022-07-10T11:16:56;21.30;61.50
22966;DHT22;11649;48.090;9.754;2022-07-10T11:19:25;21.30;60.80
22966;DHT22;11649;48.090;9.754;2022-07-10T11:25:37;21.40;63.40
22966;DHT22;11649;48.090;9.754;2022-07-10T11:28:09;21.50;63.60
22966;DHT22;11649;48.090;9.754;2022-07-10T11:33:14;21.80;61.50
22966;DHT22;11649;48.090;9.754;2022-07-10T11:35:45;21.80;61.20
22966;DHT22;11649;48.090;9.754;2022-07-10T11:38:12;22.00;57.60
22966;DHT22;11649;48.090;9.754;2022-07-10T11:40:39;22.20;58.40
22966;DHT22;11649;48.090;9.754;2022-07-10T11:43:06;22.10;57.70
22966;DHT22;11649;48.090;9.754;2022-07-10T11:45:36;21.90;59.50
22966;DHT22;11649;48.090;9.754;2022-07-10T11:48:05;21.80;59.80
22966;DHT22;11649;48.090;9.754;2022-07-10T11:50:36;21.90;59.70
22966;DHT22;11649;48.090;9.754;2022-07-10T11:53:04;22.10;56.00
22966;DHT22;11649;48.090;9.754;2022-07-10T11:55:32;22.20;58.40
22966;DHT22;11649;48.090;9.754;2022-07-10T11:58:19;22.40;57.50
22966;DHT22;11649;48.090;9.754;2022-07-10T12:01:03;22.50;56.50
22966;DHT22;11649;48.090;9.754;2022-07-10T12:03:33;22.70;54.60
22966;DHT22;11649;48.090;9.754;2022-07-10T12:06:04;22.90;58.10
22966;DHT22;11649;48.090;9.754;2022-07-10T12:08:47;23.00;59.20
22966;DHT22;11649;48.090;9.754;2022-07-10T12:11:16;22.70;56.20
22966;DHT22;11649;48.090;9.754;2022-07-10T12:13:43;22.40;57.40
22966;DHT22;11649;48.090;9.754;2022-07-10T12:16:11;22.30;58.00
22966;DHT22;11649;48.090;9.754;2022-07-10T12:18:39;22.00;57.60
22966;DHT22;11649;48.090;9.754;2022-07-10T12:21:10;21.80;57.60
22966;DHT22;11649;48.090;9.754;2022-07-10T12:23:38;21.90;59.40
22966;DHT22;11649;48.090;9.754;2022-07-10T12:26:09;21.80;58.40
22966;DHT22;11649;48.090;9.754;2022-07-10T12:28:55;21.80;58.20
22966;DHT22;11649;48.090;9.754;2022-07-10T12:31:30;21.90;59.60
22966;DHT22;11649;48.090;9.754;2022-07-10T12:34:05;22.00;58.00
22966;DHT22;11649;48.090;9.754;2022-07-10T12:39:23;21.80;60.00
22966;DHT22;11649;48.090;9.754;2022-07-10T12:42:01;22.00;60.70
22966;DHT22;11649;48.090;9.754;2022-07-10T12:44:40;22.60;53.00
22966;DHT22;11649;48.090;9.754;2022-07-10T12:47:13;22.90;54.80
22966;DHT22;11649;48.090;9.754;2022-07-10T12:50:03;22.90;53.10
22966;DHT22;11649;48.090;9.754;2022-07-10T12:52:32;22.80;52.70
22966;DHT22;11649;48.090;9.754;2022-07-10T12:55:10;23.00;55.00
22966;DHT22;11649;48.090;9.754;2022-07-10T12:58:04;23.20;56.30
22966;DHT22;11649;48.090;9.754;2022-07-10T13:00:36;23.00;56.20
22966;DHT22;11649;48.090;9.754;2022-07-10T13:03:12;22.80;54.40
22966;DHT22;11649;48.090;9.754;2022-07-10T13:05:44;22.80;57.60
22966;DHT22;11649;48.090;9.754;2022-07-10T13:08:19;23.20;54.40
22966;DHT22;11649;48.090;9.754;2022-07-10T13:10:49;23.30;54.20
22966;DHT22;11649;48.090;9.754;2022-07-10T13:13:17;24.20;53.10
22966;DHT22;11649;48.090;9.754;2022-07-10T13:15:45;24.90;48.60
22966;DHT22;11649;48.090;9.754;2022-07-10T13:18:24;25.50;47.40
22966;DHT22;11649;48.090;9.754;2022-07-10T13:20:54;25.20;49.30
22966;DHT22;11649;48.090;9.754;2022-07-10T13:23:27;26.20;46.30
22966;DHT22;11649;48.090;9.754;2022-07-10T13:25:57;25.60;46.40
22966;DHT22;11649;48.090;9.754;2022-07-10T13:28:27;25.80;48.70
22966;DHT22;11649;48.090;9.754;2022-07-10T13:30:54;26.30;48.60
22966;DHT22;11649;48.090;9.754;2022-07-10T13:33:21;27.60;45.20
22966;DHT22;11649;48.090;9.754;2022-07-10T13:35:50;28.20;44.10
22966;DHT22;11649;48.090;9.754;2022-07-10T13:38:17;28.30;40.90
22966;DHT22;11649;48.090;9.754;2022-07-10T13:40:45;28.20;40.40
22966;DHT22;11649;48.090;9.754;2022-07-10T13:43:14;28.00;41.00
22966;DHT22;11649;48.090;9.754;2022-07-10T13:45:43;28.70;39.70
22966;DHT22;11649;48.090;9.754;2022-07-10T13:48:11;28.80;39.30
22966;DHT22;11649;48.090;9.754;2022-07-10T13:50:43;29.00;41.00
22966;DHT22;11649;48.090;9.754;2022-07-10T13:53:10;28.70;42.40
22966;DHT22;11649;48.090;9.754;2022-07-10T13:55:38;29.20;41.80
22966;DHT22;11649;48.090;9.754;2022-07-10T13:58:05;30.00;39.80
22966;DHT22;11649;48.090;9.754;2022-07-10T14:00:32;30.50;39.40
22966;DHT22;11649;48.090;9.754;2022-07-10T14:02:59;30.10;36.90
22966;DHT22;11649;48.090;9.754;2022-07-10T14:05:27;30.10;37.50
22966;DHT22;11649;48.090;9.754;2022-07-10T14:07:54;28.70;40.10
22966;DHT22;11649;48.090;9.754;2022-07-10T14:10:21;28.80;42.20
22966;DHT22;11649;48.090;9.754;2022-07-10T14:12:48;30.50;38.00
22966;DHT22;11649;48.090;9.754;2022-07-10T14:15:15;31.10;38.40
22966;DHT22;11649;48.090;9.754;2022-07-10T14:17:42;31.50;37.80
22966;DHT22;11649;48.090;9.754;2022-07-10T14:20:10;32.00;37.00
22966;DHT22;11649;48.090;9.754;2022-07-10T14:22:38;32.20;34.70
22966;DHT22;11649;48.090;9.754;2022-07-10T14:25:06;32.90;32.80
22966;DHT22;11649;48.090;9.754;2022-07-10T14:27:33;33.70;33.80
22966;DHT22;11649;48.090;9.754;2022-07-10T14:30:00;34.20;32.80
22966;DHT22;11649;48.090;9.754;2022-07-10T14:32:27;33.40;33.60
22966;DHT22;11649;48.090;9.754;2022-07-10T14:34:54;33.90;31.80
22966;DHT22;11649;48.090;9.754;2022-07-10T14:37:20;33.70;32.90
22966;DHT22;11649;48.090;9.754;2022-07-10T14:39:48;33.30;34.60
22966;DHT22;11649;48.090;9.754;2022-07-10T14:42:15;33.50;32.50
22966;DHT22;11649;48.090;9.754;2022-07-10T14:44:42;33.50;32.30
22966;DHT22;11649;48.090;9.754;2022-07-10T14:47:09;34.20;33.10
22966;DHT22;11649;48.090;9.754;2022-07-10T14:49:36;34.50;31.10
22966;DHT22;11649;48.090;9.754;2022-07-10T14:52:03;34.10;31.80
22966;DHT22;11649;48.090;9.754;2022-07-10T14:54:31;33.80;32.30
22966;DHT22;11649;48.090;9.754;2022-07-10T14:56:58;33.60;32.80
22966;DHT22;11649;48.090;9.754;2022-07-10T14:59:29;33.20;33.60
22966;DHT22;11649;48.090;9.754;2022-07-10T15:01:56;33.70;31.00
22966;DHT22;11649;48.090;9.754;2022-07-10T15:04:23;33.60;31.50
22966;DHT22;11649;48.090;9.754;2022-07-10T15:06:50;32.50;32.10
22966;DHT22;11649;48.090;9.754;2022-07-10T15:09:16;31.50;33.90
22966;DHT22;11649;48.090;9.754;2022-07-10T15:11:43;31.30;36.10
22966;DHT22;11649;48.090;9.754;2022-07-10T15:14:10;31.50;35.20
22966;DHT22;11649;48.090;9.754;2022-07-10T15:16:37;31.50;32.70
22966;DHT22;11649;48.090;9.754;2022-07-10T15:19:04;30.60;35.20
22966;DHT22;11649;48.090;9.754;2022-07-10T15:21:31;30.70;36.80
22966;DHT22;11649;48.090;9.754;2022-07-10T15:23:58;30.70;36.40
22966;DHT22;11649;48.090;9.754;2022-07-10T15:26:25;30.30;34.40
22966;DHT22;11649;48.090;9.754;2022-07-10T15:28:52;29.80;35.70
22966;DHT22;11649;48.090;9.754;2022-07-10T15:31:18;29.50;38.30
22966;DHT22;11649;48.090;9.754;2022-07-10T15:33:45;28.70;38.70
22966;DHT22;11649;48.090;9.754;2022-07-10T15:36:12;28.40;38.00
22966;DHT22;11649;48.090;9.754;2022-07-10T15:38:40;28.30;38.60
22966;DHT22;11649;48.090;9.754;2022-07-10T15:41:08;28.50;38.80
22966;DHT22;11649;48.090;9.754;2022-07-10T15:43:35;28.50;38.40
22966;DHT22;11649;48.090;9.754;2022-07-10T15:46:02;28.60;38.70
22966;DHT22;11649;48.090;9.754;2022-07-10T15:48:29;28.90;41.50
22966;DHT22;11649;48.090;9.754;2022-07-10T15:50:56;28.80;39.30
22966;DHT22;11649;48.090;9.754;2022-07-10T15:53:22;28.90;37.60
22966;DHT22;11649;48.090;9.754;2022-07-10T15:55:49;28.80;38.40
22966;DHT22;11649;48.090;9.754;2022-07-10T15:58:16;28.30;39.40
22966;DHT22;11649;48.090;9.754;2022-07-10T16:00:43;27.80;39.90
22966;DHT22;11649;48.090;9.754;2022-07-10T16:03:10;27.50;39.90
22966;DHT22;11649;48.090;9.754;2022-07-10T16:05:38;27.10;40.60
22966;DHT22;11649;48.090;9.754;2022-07-10T16:08:05;26.70;40.80
22966;DHT22;11649;48.090;9.754;2022-07-10T16:10:32;26.20;41.50
22966;DHT22;11649;48.090;9.754;2022-07-10T16:12:59;26.10;41.90
22966;DHT22;11649;48.090;9.754;2022-07-10T16:15:26;25.90;42.90
22966;DHT22;11649;48.090;9.754;2022-07-10T16:17:53;25.70;42.90